Terminal Aerodrome Forecast
Issued by NWS Wilmington, OH

Current Version | Previous Version | Text Only | Print | Product List | Glossary Off
Versions: 1 2 3 4 5 6 7 8 9 10 11 12 13 14 15 16

000
FTUS41 KILN 271100
TAFCMH
TAF
KCMH 271138Z 2712/2812 00000KT P6SM FEW250
     FM271300 34006KT P6SM SCT040 BKN080
     FM271500 34006KT P6SM VCTS BKN050CB
     FM272000 36005KT P6SM BKN120
     FM280000 03004KT P6SM SCT250=

USA.gov is the U.S. government's official web portal to all federal, state and local government web resources and services.